首页
METAR-TAF:

METAR-TAF

机场 :

澤西島,

纬度: 49-13N, 经度: 002-12W, 海拔: 84米

当前天气观测

该预报发布于24分钟前的17:50 UTC
风速9节,风向
温度 3°C
湿度 93%
气压 1021 hPa
能見度: 6000
少量云层高于600英尺
多云层高于700英尺

METAR: EGJJ 241750Z 09009KT 6000 FEW006 BKN007 03/02 Q1021

时间: 18:14 (18:14 UTC)

预报

该预报发布于1小时和13分钟前的17:01 UTC
预报有效从24日的 18点(UTC)到 25日的 03点(UTC)
风速10节,风向
能見度: 6000
多云层高于700英尺
短暂存在
从 24日的 18点(UTC)到 24日的 22点(UTC)
能見度: 4000
轻雾
几率 30% :
短暂存在
从 24日的 18点(UTC)到 24日的 22点(UTC)
散云层高于700英尺
几率 40% :
短暂存在
从 24日的 22点(UTC)到 25日的 03点(UTC)
能見度: 2500
多云层高于400英尺
轻雾

TAF: EGJJ 241701Z 2418/2503 09010KT 6000 BKN007 TEMPO 2418/2422 4000 BR PROB30 TEMPO 2418/2422 SCT007 PROB40 TEMPO 2422/2503 2500 BR BKN004

超过4000个机场的气象观测和天气预报(METAR&TAF报告)。

可查询的气象台以黄色和红色小点在地图上表示。

将鼠标移到小点上方,可查看气象台名称。

然后点击查看天气观测和预报。

如需切换地图:点击带黑十字的绿色按钮放大地图;点击带横线的绿色按钮缩小地图;或者点击绿色箭头查看邻近地区的地图。


METAR-TAF: